createdAt,value
2022-09-29T00:01:07.884Z,2.95
2022-09-29T00:03:34.659Z,2.92
2022-09-29T00:06:01.421Z,2.92
2022-09-29T00:08:30.045Z,2.80
2022-09-29T00:10:56.802Z,3.08
2022-09-29T00:13:23.857Z,3.33
2022-09-29T00:16:00.286Z,3.08
2022-09-29T00:18:27.903Z,2.80
2022-09-29T00:21:02.679Z,3.13
2022-09-29T00:23:30.766Z,3.60
2022-09-29T00:26:07.438Z,3.33
2022-09-29T00:28:35.231Z,3.10
2022-09-29T00:31:03.357Z,3.22
2022-09-29T00:33:34.319Z,3.00
2022-09-29T00:36:06.663Z,3.40
2022-09-29T00:38:34.376Z,2.70
2022-09-29T00:41:01.273Z,3.00
2022-09-29T00:43:49.719Z,3.15
2022-09-29T00:46:38.505Z,2.80
2022-09-29T00:49:15.636Z,2.92
2022-09-29T00:51:48.547Z,3.22
2022-09-29T00:54:18.530Z,2.90
2022-09-29T00:56:46.373Z,3.47
2022-09-29T00:59:24.743Z,3.15
2022-09-29T01:01:54.827Z,3.28
2022-09-29T01:04:22.705Z,3.50
2022-09-29T01:06:56.200Z,3.50
2022-09-29T01:09:28.449Z,3.60
2022-09-29T01:11:58.462Z,3.25
2022-09-29T01:14:27.787Z,3.53
2022-09-29T01:16:54.313Z,2.90
2022-09-29T01:19:39.615Z,3.33
2022-09-29T01:22:17.176Z,2.97
2022-09-29T01:25:05.587Z,2.90
2022-09-29T01:27:56.996Z,2.70
2022-09-29T01:30:46.078Z,3.17
2022-09-29T01:33:42.972Z,2.85
2022-09-29T01:36:24.459Z,2.80
2022-09-29T01:39:11.134Z,3.05
2022-09-29T01:42:03.190Z,2.97
2022-09-29T01:44:41.602Z,2.92
2022-09-29T01:47:25.964Z,2.70
2022-09-29T01:49:59.784Z,2.90
2022-09-29T01:52:33.488Z,3.38
2022-09-29T01:55:08.645Z,2.90
2022-09-29T01:57:45.558Z,3.20
2022-09-29T02:00:15.903Z,3.05
2022-09-29T02:03:01.020Z,3.00
2022-09-29T02:05:42.468Z,3.03
2022-09-29T02:08:19.616Z,3.38
2022-09-29T02:10:55.914Z,3.33
2022-09-29T02:13:24.699Z,3.10
2022-09-29T02:15:55.981Z,3.30
2022-09-29T02:18:30.546Z,3.22
2022-09-29T02:20:57.258Z,3.20
2022-09-29T02:23:23.878Z,3.08
2022-09-29T02:25:51.978Z,3.67
2022-09-29T02:28:19.486Z,3.15
2022-09-29T02:30:46.347Z,3.30
2022-09-29T02:33:20.757Z,3.47
2022-09-29T02:35:49.964Z,3.47
2022-09-29T02:38:45.648Z,3.25
2022-09-29T02:41:52.930Z,3.45
2022-09-29T02:44:41.036Z,3.42
2022-09-29T02:47:23.256Z,3.47
2022-09-29T02:52:43.644Z,3.15
2022-09-29T02:55:27.853Z,3.08
2022-09-29T02:58:13.323Z,3.50
2022-09-29T03:00:40.373Z,3.30
2022-09-29T03:03:06.946Z,3.70
2022-09-29T03:05:33.793Z,3.78
2022-09-29T03:08:00.345Z,3.70
2022-09-29T03:10:30.071Z,3.83
2022-09-29T03:12:57.170Z,4.35
2022-09-29T03:15:23.710Z,4.00
2022-09-29T03:17:50.625Z,3.90
2022-09-29T03:20:17.154Z,6.32
2022-09-29T03:22:43.641Z,6.65
2022-09-29T03:25:14.859Z,7.20
2022-09-29T03:27:42.292Z,6.43
2022-09-29T03:30:09.484Z,6.85
2022-09-29T03:32:35.982Z,6.60
2022-09-29T03:35:02.543Z,6.20
2022-09-29T03:37:29.057Z,6.25
2022-09-29T03:39:55.567Z,6.07
2022-09-29T03:42:24.266Z,5.32
2022-09-29T03:44:52.950Z,6.10
2022-09-29T03:47:19.454Z,6.68
2022-09-29T03:49:46.158Z,5.68
2022-09-29T03:52:12.932Z,5.88
2022-09-29T03:54:39.472Z,5.75
2022-09-29T03:57:06.044Z,6.13
2022-09-29T03:59:32.609Z,5.85
2022-09-29T04:01:59.244Z,5.25
2022-09-29T04:04:26.098Z,6.28
2022-09-29T04:06:52.604Z,5.72
2022-09-29T04:09:19.148Z,5.97
2022-09-29T04:11:45.722Z,5.18
2022-09-29T04:14:12.397Z,4.75
2022-09-29T04:16:38.981Z,5.38
2022-09-29T04:19:05.634Z,5.00
2022-09-29T04:21:32.204Z,5.60
2022-09-29T04:23:58.739Z,5.50
2022-09-29T04:26:25.248Z,6.05
2022-09-29T04:28:51.750Z,5.32
2022-09-29T04:31:18.323Z,5.53
2022-09-29T04:33:45.644Z,5.60
2022-09-29T04:36:12.230Z,6.03
2022-09-29T04:38:38.775Z,5.60
2022-09-29T04:41:05.751Z,5.90
2022-09-29T04:43:32.327Z,5.40
2022-09-29T04:46:03.837Z,6.60
2022-09-29T04:48:34.903Z,6.88
2022-09-29T04:51:02.317Z,5.90
2022-09-29T04:53:28.806Z,5.53
2022-09-29T04:55:55.383Z,5.38
2022-09-29T04:58:21.913Z,6.15
2022-09-29T05:00:48.485Z,6.30
2022-09-29T05:03:15.240Z,3.63
2022-09-29T05:05:41.785Z,3.80
2022-09-29T05:08:08.383Z,3.22
2022-09-29T05:10:34.977Z,3.42
2022-09-29T05:13:01.496Z,3.67
2022-09-29T05:15:28.042Z,3.83
2022-09-29T05:17:54.712Z,3.40
2022-09-29T05:20:21.271Z,3.40
2022-09-29T05:22:47.762Z,3.53
2022-09-29T05:25:14.478Z,3.85
2022-09-29T05:27:40.984Z,3.17
2022-09-29T05:30:08.024Z,3.60
2022-09-29T05:32:34.646Z,4.10
2022-09-29T05:35:01.182Z,4.20
2022-09-29T05:37:27.691Z,3.75
2022-09-29T05:39:54.372Z,3.63
2022-09-29T05:42:20.963Z,5.40
2022-09-29T05:44:47.458Z,6.25
2022-09-29T05:47:13.993Z,3.63
2022-09-29T05:49:40.552Z,3.65
2022-09-29T05:52:07.308Z,4.88
2022-09-29T05:54:33.862Z,6.05
2022-09-29T05:57:00.454Z,6.55
2022-09-29T05:59:27.051Z,7.07
2022-09-29T06:01:53.653Z,7.18
2022-09-29T06:04:20.246Z,6.90
2022-09-29T06:06:47.553Z,7.30
2022-09-29T06:09:16.362Z,7.57
2022-09-29T06:11:42.954Z,8.10
2022-09-29T06:14:09.628Z,8.10
2022-09-29T06:16:36.665Z,10.50
2022-09-29T06:19:04.726Z,10.40
2022-09-29T06:21:32.380Z,12.55
2022-09-29T06:24:01.852Z,12.20
2022-09-29T06:26:28.492Z,11.05
2022-09-29T06:28:56.404Z,10.98
2022-09-29T06:31:27.218Z,10.88
2022-09-29T06:33:57.398Z,10.93
2022-09-29T06:37:03.340Z,10.55
2022-09-29T06:39:30.451Z,11.65
2022-09-29T06:41:57.086Z,13.25
2022-09-29T06:44:26.591Z,15.10
2022-09-29T06:46:55.731Z,11.73
2022-09-29T06:49:23.071Z,11.82
2022-09-29T06:51:49.852Z,12.20
2022-09-29T06:54:20.351Z,10.70
2022-09-29T06:56:48.850Z,10.13
2022-09-29T06:59:19.067Z,9.73
2022-09-29T07:01:49.813Z,10.95
2022-09-29T07:04:17.198Z,12.13
2022-09-29T07:06:45.757Z,14.70
2022-09-29T07:09:16.150Z,13.02
2022-09-29T07:11:47.831Z,12.63
2022-09-29T07:14:20.442Z,11.68
2022-09-29T07:16:48.407Z,11.75
2022-09-29T07:19:16.840Z,13.18
2022-09-29T07:21:44.011Z,12.70
2022-09-29T07:24:10.866Z,20.75
2022-09-29T07:26:38.071Z,23.58
2022-09-29T07:29:04.769Z,18.98
2022-09-29T07:31:40.315Z,21.17
2022-09-29T07:34:11.949Z,18.08
2022-09-29T07:36:39.092Z,17.77
2022-09-29T07:39:05.692Z,17.65
2022-09-29T07:41:32.323Z,19.20
2022-09-29T07:43:58.863Z,20.23
2022-09-29T07:46:25.506Z,19.40
2022-09-29T07:48:52.211Z,19.38
2022-09-29T07:51:20.644Z,20.33
2022-09-29T07:53:47.815Z,17.83
2022-09-29T07:56:20.510Z,21.02
2022-09-29T07:58:49.952Z,18.70
2022-09-29T08:01:18.307Z,20.30
2022-09-29T08:03:50.500Z,17.58
2022-09-29T08:08:56.231Z,17.52
2022-09-29T08:11:31.585Z,17.60
2022-09-29T08:13:59.921Z,16.35
2022-09-29T08:16:26.796Z,18.50
2022-09-29T08:18:53.351Z,18.00
2022-09-29T08:21:19.892Z,18.42
2022-09-29T08:23:46.499Z,18.92
2022-09-29T08:26:21.281Z,19.83
2022-09-29T08:29:05.746Z,20.00
2022-09-29T08:31:34.020Z,20.42
2022-09-29T08:38:05.513Z,18.90
2022-09-29T08:40:32.231Z,20.23
2022-09-29T08:43:34.503Z,18.80
2022-09-29T08:46:34.748Z,18.55
2022-09-29T08:49:11.118Z,18.80
2022-09-29T08:51:45.249Z,17.95
2022-09-29T08:54:38.136Z,15.90
2022-09-29T08:57:07.598Z,15.18
2022-09-29T08:59:34.366Z,14.07
2022-09-29T09:02:03.804Z,13.50
2022-09-29T09:05:02.729Z,12.70
2022-09-29T09:08:03.339Z,14.50
2022-09-29T09:10:44.219Z,14.98
2022-09-29T09:13:26.388Z,16.30
2022-09-29T09:16:08.284Z,17.15
2022-09-29T09:18:59.942Z,13.95
2022-09-29T09:21:55.957Z,14.32
2022-09-29T09:24:38.052Z,11.93
2022-09-29T09:27:04.890Z,12.48
2022-09-29T09:29:37.804Z,12.25
2022-09-29T09:32:08.136Z,11.18
2022-09-29T09:34:57.773Z,12.23
2022-09-29T09:37:38.263Z,11.40
2022-09-29T09:40:18.841Z,11.00
2022-09-29T09:42:52.486Z,11.18
2022-09-29T09:45:36.562Z,10.45
2022-09-29T09:48:22.848Z,10.60
2022-09-29T09:50:50.659Z,8.60
2022-09-29T09:53:28.833Z,8.82
2022-09-29T09:56:13.361Z,8.50
2022-09-29T09:59:04.430Z,8.30
2022-09-29T10:01:31.121Z,8.80
2022-09-29T10:04:00.096Z,9.00
2022-09-29T10:06:26.781Z,8.85
2022-09-29T10:08:53.358Z,8.75
2022-09-29T10:11:34.285Z,8.57
2022-09-29T10:14:04.726Z,8.43
2022-09-29T10:16:41.760Z,7.03
2022-09-29T10:19:10.408Z,6.53
2022-09-29T10:21:41.398Z,7.60
2022-09-29T10:24:28.380Z,7.80
2022-09-29T10:26:58.824Z,6.88
2022-09-29T10:29:42.306Z,7.15
2022-09-29T10:32:37.618Z,5.78
2022-09-29T10:35:06.801Z,6.25
2022-09-29T10:37:43.186Z,6.28
2022-09-29T10:40:10.744Z,5.40
2022-09-29T10:42:38.464Z,4.97
2022-09-29T10:45:04.887Z,4.68
2022-09-29T10:47:31.496Z,4.35
2022-09-29T10:50:16.204Z,4.30
2022-09-29T10:53:05.351Z,3.90
2022-09-29T10:55:36.169Z,4.38
2022-09-29T10:58:44.467Z,5.13
2022-09-29T11:01:19.627Z,4.15
2022-09-29T11:04:03.434Z,5.20
2022-09-29T11:06:35.058Z,4.60
2022-09-29T11:09:07.841Z,4.63
2022-09-29T11:11:39.611Z,4.18
2022-09-29T11:14:23.475Z,4.85
2022-09-29T11:16:54.907Z,5.20
2022-09-29T11:19:22.818Z,5.90
2022-09-29T11:22:26.995Z,4.93
2022-09-29T11:25:22.621Z,5.00
2022-09-29T11:28:30.813Z,6.00
2022-09-29T11:31:11.929Z,5.80
2022-09-29T11:34:10.995Z,5.45
2022-09-29T11:40:11.966Z,5.03
2022-09-29T11:42:41.598Z,5.18
2022-09-29T11:45:15.285Z,5.38
2022-09-29T11:48:10.569Z,4.80
2022-09-29T11:50:55.751Z,4.40
2022-09-29T11:53:47.779Z,4.13
2022-09-29T11:56:31.857Z,4.00
2022-09-29T11:59:01.909Z,4.50
2022-09-29T12:01:54.506Z,4.13
2022-09-29T12:04:36.528Z,3.60
2022-09-29T12:07:29.188Z,3.35
2022-09-29T12:10:26.097Z,3.42
2022-09-29T12:13:02.137Z,3.80
2022-09-29T12:15:46.970Z,4.32
2022-09-29T12:18:18.718Z,3.88
2022-09-29T12:20:50.000Z,3.78
2022-09-29T12:23:21.028Z,3.60
2022-09-29T12:25:56.788Z,3.97
2022-09-29T12:28:34.854Z,3.35
2022-09-29T12:31:12.166Z,2.95
2022-09-29T12:33:43.779Z,3.30
2022-09-29T12:36:53.757Z,3.67
2022-09-29T12:39:34.136Z,3.13
2022-09-29T12:42:19.067Z,3.42
2022-09-29T12:45:12.211Z,3.20
2022-09-29T12:47:55.152Z,3.00
2022-09-29T12:50:24.687Z,3.80
2022-09-29T12:53:09.811Z,3.92
2022-09-29T12:55:45.245Z,4.60
2022-09-29T12:58:22.528Z,4.20
2022-09-29T13:00:55.090Z,3.00
2022-09-29T13:03:36.711Z,2.78
2022-09-29T13:06:06.285Z,3.10
2022-09-29T13:09:14.570Z,3.00
2022-09-29T13:11:59.809Z,3.78
2022-09-29T13:14:51.450Z,4.93
2022-09-29T13:17:30.197Z,4.03
2022-09-29T13:20:45.031Z,3.53
2022-09-29T13:23:14.370Z,3.15
2022-09-29T13:25:59.803Z,3.33
2022-09-29T13:28:32.192Z,3.55
2022-09-29T13:31:04.739Z,2.75
2022-09-29T13:33:32.195Z,2.83
2022-09-29T13:35:59.535Z,3.10
2022-09-29T13:38:33.133Z,3.65
2022-09-29T13:41:39.570Z,3.58
2022-09-29T13:44:27.858Z,2.90
2022-09-29T13:46:56.291Z,2.55
2022-09-29T13:49:25.110Z,3.22
2022-09-29T13:51:57.867Z,3.08
2022-09-29T13:54:31.995Z,4.90
2022-09-29T13:57:06.981Z,3.40
2022-09-29T13:59:35.472Z,4.03
2022-09-29T14:02:03.280Z,4.15
2022-09-29T14:04:45.208Z,3.10
2022-09-29T14:07:36.382Z,3.50
2022-09-29T14:10:14.202Z,3.33
2022-09-29T14:12:41.863Z,3.22
2022-09-29T14:15:15.560Z,3.67
2022-09-29T14:17:46.876Z,3.47
2022-09-29T14:20:28.586Z,3.35
2022-09-29T14:22:57.303Z,3.20
2022-09-29T14:25:29.588Z,3.50
2022-09-29T14:27:57.942Z,3.90
2022-09-29T14:30:35.118Z,4.00
2022-09-29T14:33:10.935Z,3.88
2022-09-29T14:35:40.700Z,4.07
2022-09-29T14:38:13.961Z,3.92
2022-09-29T14:41:13.943Z,4.28
2022-09-29T14:43:53.702Z,3.22
2022-09-29T14:46:57.357Z,3.38
2022-09-29T14:50:19.581Z,3.00
2022-09-29T14:53:06.407Z,3.22
2022-09-29T14:56:00.174Z,3.33
2022-09-29T14:58:45.538Z,3.20
2022-09-29T15:01:24.199Z,3.17
2022-09-29T15:03:52.760Z,2.65
2022-09-29T15:06:20.630Z,2.92
2022-09-29T15:09:16.306Z,3.03
2022-09-29T15:12:04.661Z,3.20
2022-09-29T15:14:39.431Z,3.55
2022-09-29T15:17:38.062Z,3.15
2022-09-29T15:20:22.961Z,3.13
2022-09-29T15:23:14.135Z,2.60
2022-09-29T15:25:43.328Z,3.15
2022-09-29T15:28:16.187Z,3.20
2022-09-29T15:30:44.187Z,3.03
2022-09-29T15:33:22.129Z,3.30
2022-09-29T15:35:57.619Z,3.28
2022-09-29T15:38:24.080Z,3.47
2022-09-29T15:40:55.708Z,3.00
2022-09-29T15:43:26.119Z,3.55
2022-09-29T15:46:02.632Z,3.70
2022-09-29T15:48:31.151Z,4.20
2022-09-29T15:50:58.368Z,3.47
2022-09-29T15:53:27.665Z,3.50
2022-09-29T15:55:55.728Z,4.90
2022-09-29T15:58:31.175Z,4.28
2022-09-29T16:01:06.597Z,4.38
2022-09-29T16:04:01.787Z,4.80
2022-09-29T16:06:38.226Z,5.00
2022-09-29T16:09:08.259Z,4.93
2022-09-29T16:11:37.647Z,5.38
2022-09-29T16:14:28.181Z,5.00
2022-09-29T16:16:58.741Z,4.88
2022-09-29T16:19:31.233Z,5.43
2022-09-29T16:22:04.704Z,5.18
2022-09-29T16:24:34.655Z,4.70
2022-09-29T16:27:01.794Z,4.30
2022-09-29T16:29:30.319Z,4.10
2022-09-29T16:31:58.373Z,4.07
2022-09-29T16:34:28.412Z,4.50
2022-09-29T16:37:02.784Z,5.28
2022-09-29T16:39:34.050Z,5.50
2022-09-29T16:42:06.621Z,4.60
2022-09-29T16:44:43.691Z,4.22
2022-09-29T16:47:10.171Z,4.68
2022-09-29T16:49:44.719Z,4.55
2022-09-29T16:52:14.494Z,3.80
2022-09-29T16:54:43.842Z,4.43
2022-09-29T16:57:23.252Z,4.63
2022-09-29T16:59:53.290Z,4.85
2022-09-29T17:02:22.686Z,4.18
2022-09-29T17:04:53.750Z,4.38
2022-09-29T17:07:23.166Z,4.72
2022-09-29T17:09:56.153Z,4.20
2022-09-29T17:12:24.969Z,3.70
2022-09-29T17:14:51.548Z,4.18
2022-09-29T17:17:26.328Z,4.40
2022-09-29T17:19:56.526Z,3.85
2022-09-29T17:22:36.861Z,3.55
2022-09-29T17:25:04.650Z,3.45
2022-09-29T17:28:09.711Z,3.92
2022-09-29T17:30:36.280Z,3.22
2022-09-29T17:33:03.771Z,2.95
2022-09-29T17:35:34.768Z,2.83
2022-09-29T17:38:01.431Z,3.03
2022-09-29T17:40:34.421Z,2.55
2022-09-29T17:43:01.035Z,2.45
2022-09-29T17:45:39.358Z,2.72
2022-09-29T17:48:06.035Z,2.38
2022-09-29T17:50:47.947Z,1.95
2022-09-29T17:53:17.861Z,1.80
2022-09-29T17:55:47.119Z,2.10
2022-09-29T17:58:16.218Z,2.03
2022-09-29T18:00:47.240Z,2.10
2022-09-29T18:03:14.449Z,2.17
2022-09-29T18:05:42.853Z,2.70
2022-09-29T18:08:17.455Z,2.70
2022-09-29T18:10:43.984Z,3.53
2022-09-29T18:13:11.700Z,4.40
2022-09-29T18:15:39.045Z,4.57
2022-09-29T18:18:07.806Z,3.55
2022-09-29T18:20:40.185Z,3.00
2022-09-29T18:23:06.766Z,3.22
2022-09-29T18:25:34.926Z,3.13
2022-09-29T18:28:03.345Z,2.67
2022-09-29T18:30:34.064Z,1.85
2022-09-29T18:33:00.681Z,2.47
2022-09-29T18:35:31.248Z,2.63
2022-09-29T18:37:58.745Z,2.15
2022-09-29T18:40:26.833Z,3.30
2022-09-29T18:42:56.942Z,2.90
2022-09-29T18:45:25.730Z,2.85
2022-09-29T18:47:55.074Z,2.90
2022-09-29T18:50:25.223Z,3.03
2022-09-29T18:52:52.266Z,2.95
2022-09-29T18:55:24.017Z,2.92
2022-09-29T18:57:51.082Z,3.80
2022-09-29T19:00:20.249Z,3.20
2022-09-29T19:02:48.023Z,3.20
2022-09-29T19:05:21.219Z,2.90
2022-09-29T19:07:49.503Z,2.50
2022-09-29T19:10:17.321Z,2.45
2022-09-29T19:12:49.218Z,2.17
2022-09-29T19:15:17.788Z,2.03
2022-09-29T19:17:45.524Z,1.63
2022-09-29T19:20:13.697Z,1.48
2022-09-29T19:22:42.236Z,1.73
2022-09-29T19:25:14.289Z,2.20
2022-09-29T19:30:13.886Z,2.20
2022-09-29T19:32:41.000Z,2.33
2022-09-29T19:35:10.131Z,2.22
2022-09-29T19:37:36.900Z,2.75
2022-09-29T19:40:05.713Z,2.80
2022-09-29T19:42:32.554Z,3.63
2022-09-29T19:44:59.450Z,3.90
2022-09-29T19:47:25.954Z,3.17
2022-09-29T19:50:12.421Z,3.83
2022-09-29T19:52:38.959Z,3.92
2022-09-29T19:55:11.025Z,4.05
2022-09-29T20:00:11.371Z,3.70
2022-09-29T20:02:37.931Z,3.55
2022-09-29T20:05:05.613Z,3.67
2022-09-29T20:07:32.346Z,4.30
2022-09-29T20:09:58.884Z,3.80
2022-09-29T20:12:25.433Z,3.80
2022-09-29T20:14:51.930Z,4.93
2022-09-29T20:17:18.715Z,5.30
2022-09-29T20:19:47.698Z,5.82
2022-09-29T20:22:15.535Z,6.00
2022-09-29T20:24:42.066Z,6.15
2022-09-29T20:27:08.608Z,5.72
2022-09-29T20:29:35.219Z,5.25
2022-09-29T20:32:01.763Z,5.38
2022-09-29T20:34:28.431Z,5.38
2022-09-29T20:36:55.402Z,6.30
2022-09-29T20:39:22.364Z,6.68
2022-09-29T20:41:50.086Z,6.15
2022-09-29T20:44:23.640Z,6.30
2022-09-29T20:46:51.161Z,6.90
2022-09-29T20:49:17.948Z,6.43
2022-09-29T20:51:44.555Z,7.18
2022-09-29T20:54:13.037Z,7.80
2022-09-29T20:56:42.759Z,9.45
2022-09-29T20:59:12.378Z,9.13
2022-09-29T21:01:39.721Z,10.20
2022-09-29T21:04:11.952Z,9.65
2022-09-29T21:06:41.244Z,10.98
2022-09-29T21:09:11.479Z,12.98
2022-09-29T21:11:40.149Z,11.73
2022-09-29T21:14:09.459Z,13.23
2022-09-29T21:16:37.638Z,14.20
2022-09-29T21:19:04.279Z,14.60
2022-09-29T21:21:31.356Z,13.20
2022-09-29T21:23:57.860Z,13.23
2022-09-29T21:26:26.330Z,13.27
2022-09-29T21:28:55.563Z,10.55
2022-09-29T21:31:30.580Z,12.25
2022-09-29T21:33:59.907Z,12.43
2022-09-29T21:36:28.163Z,12.40
2022-09-29T21:38:54.861Z,11.43
2022-09-29T21:41:24.376Z,12.82
2022-09-29T21:43:53.455Z,12.07
2022-09-29T21:46:26.059Z,12.57
2022-09-29T21:48:58.372Z,11.20
2022-09-29T21:51:29.531Z,12.85
2022-09-29T21:53:58.649Z,11.67
2022-09-29T21:56:27.346Z,13.23
2022-09-29T21:58:55.025Z,13.10
2022-09-29T22:01:21.908Z,11.88
2022-09-29T22:03:49.222Z,13.95
2022-09-29T22:06:18.810Z,13.30
2022-09-29T22:08:49.557Z,12.48
2022-09-29T22:11:18.555Z,13.77
2022-09-29T22:13:48.287Z,13.57
2022-09-29T22:16:22.012Z,13.73
2022-09-29T22:19:05.909Z,12.82
2022-09-29T22:21:36.115Z,14.35
2022-09-29T22:24:03.758Z,13.25
2022-09-29T22:26:32.029Z,13.10
2022-09-29T22:29:02.944Z,12.18
2022-09-29T22:31:31.640Z,13.32
2022-09-29T22:34:00.134Z,11.82
2022-09-29T22:36:28.365Z,12.95
2022-09-29T22:38:55.171Z,13.25
2022-09-29T22:41:24.213Z,14.82
2022-09-29T22:43:53.332Z,14.02
2022-09-29T22:46:21.699Z,14.05
2022-09-29T22:48:48.386Z,12.98
2022-09-29T22:51:15.117Z,12.45
2022-09-29T22:53:42.423Z,12.65
2022-09-29T22:56:12.653Z,12.00
2022-09-29T22:58:41.912Z,12.30
2022-09-29T23:01:13.483Z,11.98
2022-09-29T23:03:41.833Z,12.43
2022-09-29T23:06:09.279Z,13.02
2022-09-29T23:08:36.783Z,12.85
2022-09-29T23:11:07.482Z,12.63
2022-09-29T23:13:36.904Z,12.32
2022-09-29T23:16:12.346Z,11.80
2022-09-29T23:18:45.538Z,12.18
2022-09-29T23:21:19.759Z,11.13
2022-09-29T23:23:47.527Z,10.93
2022-09-29T23:26:14.864Z,11.05
2022-09-29T23:28:41.509Z,9.77
2022-09-29T23:31:09.480Z,10.60
2022-09-29T23:33:36.124Z,9.60
2022-09-29T23:36:13.979Z,10.13
2022-09-29T23:39:01.888Z,10.98
2022-09-29T23:41:30.167Z,10.68
2022-09-29T23:43:59.797Z,10.65
2022-09-29T23:46:31.709Z,12.00
2022-09-29T23:49:00.020Z,10.82
2022-09-29T23:51:28.229Z,10.05
2022-09-29T23:53:54.754Z,11.10
2022-09-29T23:56:21.542Z,10.23
2022-09-29T23:58:48.109Z,10.00
